METAR Data
IDs: Format: Raw Decoded Include TAF

Data at: 1357 UTC 22 Apr 2021

KPNS 221353Z 04008KT 10SM CLR 13/M01 A3023 RMK AO2 SLP238 T01331006
KPNS 221253Z 05006G16KT 10SM CLR 11/00 A3022 RMK AO2 SLP234 T01110000
KPNS 221153Z 04008G16KT 10SM CLR 10/01 A3019 RMK AO2 SLP225 T01000006 10117 20094 53016
KPNS 221053Z 04006KT 10SM CLR 09/01 A3016 RMK AO2 SLP215 T00940006
KPNS 220953Z AUTO 02007G18KT 10SM CLR 10/01 A3015 RMK AO2 SLP210 T01000011
KPNS 220853Z AUTO 02010G21KT 10SM CLR 11/02 A3014 RMK AO2 SLP209 T01060017 56007
KPNS 220753Z AUTO 02012G17KT 10SM CLR 11/02 A3015 RMK AO2 SLP212 T01110017
KPNS 220653Z AUTO 36008KT 10SM CLR 12/03 A3015 RMK AO2 SLP213 T01170028
KPNS 220553Z AUTO 36008KT 10SM CLR 12/02 A3016 RMK AO2 SLP216 T01170022 10178 20117 402330117 58000
KPNS 220453Z AUTO 35008KT 10SM CLR 12/02 A3017 RMK AO2 SLP219 T01220022
KPNS 220353Z AUTO 35009KT 10SM CLR 13/03 A3017 RMK AO2 SLP217 T01330028
KPNS 220253Z 35010KT 10SM CLR 14/03 A3016 RMK AO2 SLP216 T01440028 52028
KPNS 220153Z 36008KT 10SM CLR 15/03 A3014 RMK AO2 SLP208 T01500028
KPNS 220053Z 35008KT 10SM CLR 17/02 A3011 RMK AO2 SLP196 T01670022
KPNS 212353Z 34013KT 10SM CLR 18/03 A3008 RMK AO2 SLP188 T01830028 10233 20183 53009
KPNS 212253Z 33013KT 8SM CLR 20/03 A3007 RMK AO2 SLP184 T02000028
KPNS 212153Z 34014G22KT 8SM CLR 21/04 A3006 RMK AO2 SLP179 T02110039
KPNS 212053Z 33014G19KT 10SM CLR 22/06 A3005 RMK AO2 SLP179 T02220056 58009
KPNS 211953Z 35015G23KT 10SM CLR 22/08 A3006 RMK AO2 SLP182 T02220078
KPNS 211853Z 36014G22KT 10SM CLR 23/09 A3008 RMK AO2 SLP186 T02280094
KPNS 211753Z AUTO 36013G23KT 10SM CLR 21/09 A3008 RMK AO2 SLP188 T02110089 10222 20161 58006
KPNS 211653Z 36016G22KT 10SM CLR 21/08 A3010 RMK AO2 SLP193 T02060083 $
KPNS 211553Z 19/09 A3010 RMK AO2 SLP196 T01890089 $
KPNS 211453Z 35014KT 10SM CLR 18/09 A3010 RMK AO2 SLP195 T01780089 51022
KPNS 211353Z 35015G24KT 10SM CLR 16/10 A3009 RMK AO2 SLP191 T01610100
KPNS 211253Z AUTO 33015G22KT 10SM CLR 17/11 A3007 RMK AO2 SLP183 T01670111 $
KPNS 211153Z AUTO 33010KT 10SM CLR 16/12 A3004 RMK AO2 SLP173 T01610117 10183 20150 53013 $
KPNS 211053Z AUTO 31003KT 10SM CLR 16/13 A3001 RMK AO2 SLP164 T01610133 $
KPNS 210953Z AUTO 30007KT 10SM CLR 17/14 A3000 RMK AO2 SLP162 T01720144 $
KPNS 210853Z AUTO 30009KT 10SM CLR 17/13 A3000 RMK AO2 SLP160 T01720133 55003 $
KPNS 210753Z AUTO 29007KT 10SM CLR 17/13 A2999 RMK AO2 SLP158 T01720133 $
KPNS 210653Z AUTO 28008KT 10SM CLR 18/13 A3000 RMK AO2 SLP159 T01780128 $
KPNS 210553Z AUTO 29007KT 10SM CLR 18/13 A3001 RMK AO2 SLP163 T01780133 10217 20178 402560156 50004 $
KPNS 210453Z AUTO 28008KT 10SM CLR 18/13 A3001 RMK AO2 SLP165 T01830133 $
KPNS 210353Z AUTO 27008KT 10SM CLR 19/13 A3001 RMK AO2 SLP163 T01940128 $
KPNS 210253Z 26008KT 10SM CLR 19/13 A2999 RMK AO2 SLP158 T01940128 $